Itacambira, Brazil
Current Conditions -  °F | °C
As of 11:00 PM on Monday 20 Oct 2014 (Local Time) from SBMK Reporting Station
Thunderstorm Thunderstorm  
Wind Chill: 82°   Ceiling: Unl
Heat Index: 82°   Visibility: 6mi
Dew Point: 54°   Wind: 6mph
Humidity: 37%   Direction: 150°SSE
Pressure: 29.91"   Gusts: NA
Location:  17.06°S, 43.31°W
Report Text: SBMK 210200Z 15005KT 9999 VCTS FEW050CB SCT080 28/12 Q1013
Loading
Personal Weather Stations






























Interactive Weather Map
Tropical Storm Tracking
New forecast layout! Learn more

10-Day Weather Forecast

Advertisements
Track Severe Weather on mobile